sensor_id;sensor_type;location;lat;lon;timestamp;P1;durP1;ratioP1;P2;durP2;ratioP2
18520;SDS011;9390;51.244;6.982;2023-02-01T00:00:41;25.70;;;8.52;;
18520;SDS011;9390;51.244;6.982;2023-02-01T00:03:14;25.05;;;8.63;;
18520;SDS011;9390;51.244;6.982;2023-02-01T00:05:54;22.23;;;8.00;;
18520;SDS011;9390;51.244;6.982;2023-02-01T00:08:26;26.40;;;7.65;;
18520;SDS011;9390;51.244;6.982;2023-02-01T00:10:58;25.70;;;7.28;;
18520;SDS011;9390;51.244;6.982;2023-02-01T00:13:31;30.95;;;7.65;;
18520;SDS011;9390;51.244;6.982;2023-02-01T00:16:03;24.83;;;8.60;;
18520;SDS011;9390;51.244;6.982;2023-02-01T00:18:37;28.92;;;7.97;;
18520;SDS011;9390;51.244;6.982;2023-02-01T00:21:09;39.33;;;10.93;;
18520;SDS011;9390;51.244;6.982;2023-02-01T00:23:41;23.98;;;8.05;;
18520;SDS011;9390;51.244;6.982;2023-02-01T00:26:13;27.52;;;8.57;;
18520;SDS011;9390;51.244;6.982;2023-02-01T00:31:16;28.67;;;8.30;;
18520;SDS011;9390;51.244;6.982;2023-02-01T00:33:49;19.08;;;8.95;;
18520;SDS011;9390;51.244;6.982;2023-02-01T00:36:21;25.70;;;8.88;;
18520;SDS011;9390;51.244;6.982;2023-02-01T00:38:52;25.00;;;9.60;;
18520;SDS011;9390;51.244;6.982;2023-02-01T00:41:24;26.25;;;9.10;;
18520;SDS011;9390;51.244;6.982;2023-02-01T00:43:55;29.02;;;11.38;;
18520;SDS011;9390;51.244;6.982;2023-02-01T00:46:27;24.13;;;10.73;;
18520;SDS011;9390;51.244;6.982;2023-02-01T00:49:00;28.85;;;12.30;;
18520;SDS011;9390;51.244;6.982;2023-02-01T00:51:31;35.60;;;11.52;;
18520;SDS011;9390;51.244;6.982;2023-02-01T00:54:03;41.47;;;11.60;;
18520;SDS011;9390;51.244;6.982;2023-02-01T00:56:34;32.97;;;13.35;;
18520;SDS011;9390;51.244;6.982;2023-02-01T00:59:06;28.25;;;12.15;;
18520;SDS011;9390;51.244;6.982;2023-02-01T01:01:41;34.28;;;13.07;;
18520;SDS011;9390;51.244;6.982;2023-02-01T01:04:14;25.17;;;12.27;;
18520;SDS011;9390;51.244;6.982;2023-02-01T01:06:45;35.90;;;12.65;;
18520;SDS011;9390;51.244;6.982;2023-02-01T01:09:16;35.95;;;12.48;;
18520;SDS011;9390;51.244;6.982;2023-02-01T01:11:48;32.20;;;11.68;;
18520;SDS011;9390;51.244;6.982;2023-02-01T01:14:21;35.67;;;11.63;;
18520;SDS011;9390;51.244;6.982;2023-02-01T01:16:52;26.48;;;11.35;;
18520;SDS011;9390;51.244;6.982;2023-02-01T01:19:25;28.73;;;10.88;;
18520;SDS011;9390;51.244;6.982;2023-02-01T01:21:56;27.85;;;10.65;;
18520;SDS011;9390;51.244;6.982;2023-02-01T01:24:27;31.63;;;11.45;;
18520;SDS011;9390;51.244;6.982;2023-02-01T01:26:59;24.90;;;8.77;;
18520;SDS011;9390;51.244;6.982;2023-02-01T01:29:30;29.02;;;9.23;;
18520;SDS011;9390;51.244;6.982;2023-02-01T01:32:04;29.00;;;9.38;;
18520;SDS011;9390;51.244;6.982;2023-02-01T01:34:37;31.30;;;8.52;;
18520;SDS011;9390;51.244;6.982;2023-02-01T01:37:08;29.58;;;7.78;;
18520;SDS011;9390;51.244;6.982;2023-02-01T01:39:40;26.17;;;8.18;;
18520;SDS011;9390;51.244;6.982;2023-02-01T01:42:11;21.83;;;7.40;;
18520;SDS011;9390;51.244;6.982;2023-02-01T01:44:56;23.38;;;6.90;;
18520;SDS011;9390;51.244;6.982;2023-02-01T01:47:30;21.48;;;7.30;;
18520;SDS011;9390;51.244;6.982;2023-02-01T01:50:07;22.55;;;6.10;;
18520;SDS011;9390;51.244;6.982;2023-02-01T01:52:39;18.73;;;5.93;;
18520;SDS011;9390;51.244;6.982;2023-02-01T01:55:12;21.33;;;5.80;;
18520;SDS011;9390;51.244;6.982;2023-02-01T01:57:46;16.50;;;5.03;;
18520;SDS011;9390;51.244;6.982;2023-02-01T02:00:19;26.13;;;5.63;;
18520;SDS011;9390;51.244;6.982;2023-02-01T02:02:53;24.13;;;5.17;;
18520;SDS011;9390;51.244;6.982;2023-02-01T02:05:29;22.20;;;5.28;;
18520;SDS011;9390;51.244;6.982;2023-02-01T02:08:01;31.70;;;5.43;;
18520;SDS011;9390;51.244;6.982;2023-02-01T02:10:32;21.25;;;5.70;;
18520;SDS011;9390;51.244;6.982;2023-02-01T02:13:21;22.52;;;5.82;;
18520;SDS011;9390;51.244;6.982;2023-02-01T02:15:56;23.15;;;4.50;;
18520;SDS011;9390;51.244;6.982;2023-02-01T02:18:37;22.48;;;6.78;;
18520;SDS011;9390;51.244;6.982;2023-02-01T02:21:16;22.17;;;4.43;;
18520;SDS011;9390;51.244;6.982;2023-02-01T02:26:56;17.20;;;4.05;;
18520;SDS011;9390;51.244;6.982;2023-02-01T02:29:37;26.60;;;4.95;;
18520;SDS011;9390;51.244;6.982;2023-02-01T02:35:32;17.48;;;3.58;;
18520;SDS011;9390;51.244;6.982;2023-02-01T02:38:12;19.35;;;4.95;;
18520;SDS011;9390;51.244;6.982;2023-02-01T02:40:47;20.95;;;4.68;;
18520;SDS011;9390;51.244;6.982;2023-02-01T02:43:21;21.77;;;4.00;;
18520;SDS011;9390;51.244;6.982;2023-02-01T02:46:12;23.77;;;4.95;;
18520;SDS011;9390;51.244;6.982;2023-02-01T02:49:05;17.35;;;3.72;;
18520;SDS011;9390;51.244;6.982;2023-02-01T02:51:43;17.27;;;4.45;;
18520;SDS011;9390;51.244;6.982;2023-02-01T02:54:36;18.50;;;4.45;;
18520;SDS011;9390;51.244;6.982;2023-02-01T02:57:22;21.38;;;4.15;;
18520;SDS011;9390;51.244;6.982;2023-02-01T03:00:15;21.60;;;4.43;;
18520;SDS011;9390;51.244;6.982;2023-02-01T03:03:06;21.90;;;5.25;;
18520;SDS011;9390;51.244;6.982;2023-02-01T03:05:55;17.85;;;4.10;;
18520;SDS011;9390;51.244;6.982;2023-02-01T03:08:28;22.88;;;4.70;;
18520;SDS011;9390;51.244;6.982;2023-02-01T03:11:02;18.73;;;4.32;;
18520;SDS011;9390;51.244;6.982;2023-02-01T03:13:36;20.15;;;4.40;;
18520;SDS011;9390;51.244;6.982;2023-02-01T03:16:11;17.40;;;3.92;;
18520;SDS011;9390;51.244;6.982;2023-02-01T03:18:48;19.98;;;4.03;;
18520;SDS011;9390;51.244;6.982;2023-02-01T03:21:23;21.38;;;4.95;;
18520;SDS011;9390;51.244;6.982;2023-02-01T03:23:57;26.15;;;4.50;;
18520;SDS011;9390;51.244;6.982;2023-02-01T03:26:33;17.52;;;4.05;;
18520;SDS011;9390;51.244;6.982;2023-02-01T03:29:08;20.17;;;4.15;;
18520;SDS011;9390;51.244;6.982;2023-02-01T03:31:43;15.90;;;4.05;;
18520;SDS011;9390;51.244;6.982;2023-02-01T03:34:15;27.63;;;5.03;;
18520;SDS011;9390;51.244;6.982;2023-02-01T03:36:48;19.80;;;4.00;;
18520;SDS011;9390;51.244;6.982;2023-02-01T03:39:22;23.13;;;5.22;;
18520;SDS011;9390;51.244;6.982;2023-02-01T03:41:57;22.02;;;5.07;;
18520;SDS011;9390;51.244;6.982;2023-02-01T03:44:31;15.88;;;4.00;;
18520;SDS011;9390;51.244;6.982;2023-02-01T03:47:04;23.48;;;4.53;;
18520;SDS011;9390;51.244;6.982;2023-02-01T03:49:39;17.77;;;4.40;;
18520;SDS011;9390;51.244;6.982;2023-02-01T03:52:13;24.80;;;4.30;;
18520;SDS011;9390;51.244;6.982;2023-02-01T03:54:47;15.85;;;4.55;;
18520;SDS011;9390;51.244;6.982;2023-02-01T03:57:21;22.63;;;4.22;;
18520;SDS011;9390;51.244;6.982;2023-02-01T03:59:54;18.63;;;4.80;;
18520;SDS011;9390;51.244;6.982;2023-02-01T04:02:35;26.95;;;5.15;;
18520;SDS011;9390;51.244;6.982;2023-02-01T04:05:07;20.50;;;3.83;;
18520;SDS011;9390;51.244;6.982;2023-02-01T04:07:39;23.50;;;4.60;;
18520;SDS011;9390;51.244;6.982;2023-02-01T04:10:12;21.13;;;4.70;;
18520;SDS011;9390;51.244;6.982;2023-02-01T04:12:43;32.65;;;5.47;;
18520;SDS011;9390;51.244;6.982;2023-02-01T04:15:14;28.38;;;5.10;;
18520;SDS011;9390;51.244;6.982;2023-02-01T04:17:46;19.38;;;3.70;;
18520;SDS011;9390;51.244;6.982;2023-02-01T04:20:17;23.13;;;4.05;;
18520;SDS011;9390;51.244;6.982;2023-02-01T04:22:49;24.05;;;4.32;;
18520;SDS011;9390;51.244;6.982;2023-02-01T04:25:22;24.55;;;4.18;;
18520;SDS011;9390;51.244;6.982;2023-02-01T04:27:53;22.95;;;3.58;;
18520;SDS011;9390;51.244;6.982;2023-02-01T04:30:24;27.77;;;4.75;;
18520;SDS011;9390;51.244;6.982;2023-02-01T04:32:56;23.13;;;4.15;;
18520;SDS011;9390;51.244;6.982;2023-02-01T04:35:27;25.80;;;4.57;;
18520;SDS011;9390;51.244;6.982;2023-02-01T04:37:58;18.02;;;4.30;;
18520;SDS011;9390;51.244;6.982;2023-02-01T04:40:31;23.88;;;3.85;;
18520;SDS011;9390;51.244;6.982;2023-02-01T04:43:02;18.80;;;4.25;;
18520;SDS011;9390;51.244;6.982;2023-02-01T04:45:36;23.10;;;3.97;;
18520;SDS011;9390;51.244;6.982;2023-02-01T04:48:08;18.00;;;3.75;;
18520;SDS011;9390;51.244;6.982;2023-02-01T04:50:39;21.75;;;4.55;;
18520;SDS011;9390;51.244;6.982;2023-02-01T04:53:10;20.73;;;4.30;;
18520;SDS011;9390;51.244;6.982;2023-02-01T04:55:43;23.17;;;5.25;;
18520;SDS011;9390;51.244;6.982;2023-02-01T04:58:15;22.10;;;4.85;;
18520;SDS011;9390;51.244;6.982;2023-02-01T05:00:46;22.20;;;4.47;;
18520;SDS011;9390;51.244;6.982;2023-02-01T05:03:18;19.23;;;3.85;;
18520;SDS011;9390;51.244;6.982;2023-02-01T05:05:50;26.05;;;3.58;;
18520;SDS011;9390;51.244;6.982;2023-02-01T05:10:57;13.48;;;3.22;;
18520;SDS011;9390;51.244;6.982;2023-02-01T05:13:28;22.73;;;4.35;;
18520;SDS011;9390;51.244;6.982;2023-02-01T05:16:17;28.70;;;5.03;;
18520;SDS011;9390;51.244;6.982;2023-02-01T05:18:49;20.85;;;4.13;;
18520;SDS011;9390;51.244;6.982;2023-02-01T05:21:20;25.30;;;4.90;;
18520;SDS011;9390;51.244;6.982;2023-02-01T05:23:51;20.55;;;4.10;;
18520;SDS011;9390;51.244;6.982;2023-02-01T05:26:44;22.02;;;3.92;;
18520;SDS011;9390;51.244;6.982;2023-02-01T05:29:16;27.23;;;4.10;;
18520;SDS011;9390;51.244;6.982;2023-02-01T05:31:48;22.73;;;3.67;;
18520;SDS011;9390;51.244;6.982;2023-02-01T05:34:19;26.40;;;4.20;;
18520;SDS011;9390;51.244;6.982;2023-02-01T05:36:51;22.73;;;4.28;;
18520;SDS011;9390;51.244;6.982;2023-02-01T05:39:22;15.70;;;3.28;;
18520;SDS011;9390;51.244;6.982;2023-02-01T05:41:55;30.02;;;4.35;;
18520;SDS011;9390;51.244;6.982;2023-02-01T05:44:26;20.80;;;3.63;;
18520;SDS011;9390;51.244;6.982;2023-02-01T05:46:58;24.73;;;3.92;;
18520;SDS011;9390;51.244;6.982;2023-02-01T05:49:29;18.92;;;3.58;;
18520;SDS011;9390;51.244;6.982;2023-02-01T05:52:00;32.92;;;4.30;;
18520;SDS011;9390;51.244;6.982;2023-02-01T05:54:32;25.67;;;4.47;;
18520;SDS011;9390;51.244;6.982;2023-02-01T05:57:05;25.50;;;4.15;;
18520;SDS011;9390;51.244;6.982;2023-02-01T05:59:36;31.55;;;3.95;;
18520;SDS011;9390;51.244;6.982;2023-02-01T06:02:10;19.27;;;3.80;;
18520;SDS011;9390;51.244;6.982;2023-02-01T06:04:42;27.33;;;5.22;;
18520;SDS011;9390;51.244;6.982;2023-02-01T06:07:13;19.35;;;3.92;;
18520;SDS011;9390;51.244;6.982;2023-02-01T06:09:45;24.63;;;4.10;;
18520;SDS011;9390;51.244;6.982;2023-02-01T06:12:18;26.05;;;4.50;;
18520;SDS011;9390;51.244;6.982;2023-02-01T06:14:49;20.58;;;4.13;;
18520;SDS011;9390;51.244;6.982;2023-02-01T06:17:20;22.77;;;4.90;;
18520;SDS011;9390;51.244;6.982;2023-02-01T06:19:52;22.85;;;4.53;;
18520;SDS011;9390;51.244;6.982;2023-02-01T06:22:23;29.88;;;4.10;;
18520;SDS011;9390;51.244;6.982;2023-02-01T06:24:57;19.30;;;3.75;;
18520;SDS011;9390;51.244;6.982;2023-02-01T06:27:30;25.70;;;4.63;;
18520;SDS011;9390;51.244;6.982;2023-02-01T06:30:03;20.85;;;3.95;;
18520;SDS011;9390;51.244;6.982;2023-02-01T06:32:35;20.35;;;4.07;;
18520;SDS011;9390;51.244;6.982;2023-02-01T06:35:07;22.42;;;5.10;;
18520;SDS011;9390;51.244;6.982;2023-02-01T06:37:41;18.80;;;3.85;;
18520;SDS011;9390;51.244;6.982;2023-02-01T06:40:13;20.63;;;4.00;;
18520;SDS011;9390;51.244;6.982;2023-02-01T06:42:46;16.52;;;3.40;;
18520;SDS011;9390;51.244;6.982;2023-02-01T06:45:19;25.75;;;4.82;;
18520;SDS011;9390;51.244;6.982;2023-02-01T06:47:50;22.80;;;4.32;;
18520;SDS011;9390;51.244;6.982;2023-02-01T06:50:22;24.70;;;4.07;;
18520;SDS011;9390;51.244;6.982;2023-02-01T06:52:53;32.33;;;5.18;;
18520;SDS011;9390;51.244;6.982;2023-02-01T06:55:24;27.02;;;4.28;;
18520;SDS011;9390;51.244;6.982;2023-02-01T06:57:57;22.75;;;4.05;;
18520;SDS011;9390;51.244;6.982;2023-02-01T07:00:28;19.65;;;4.30;;
18520;SDS011;9390;51.244;6.982;2023-02-01T07:03:00;24.90;;;4.90;;
18520;SDS011;9390;51.244;6.982;2023-02-01T07:05:32;21.33;;;3.95;;
18520;SDS011;9390;51.244;6.982;2023-02-01T07:08:03;17.30;;;3.92;;
18520;SDS011;9390;51.244;6.982;2023-02-01T07:10:35;25.17;;;4.43;;
18520;SDS011;9390;51.244;6.982;2023-02-01T07:13:08;19.80;;;4.35;;
18520;SDS011;9390;51.244;6.982;2023-02-01T07:15:39;25.85;;;3.85;;
18520;SDS011;9390;51.244;6.982;2023-02-01T07:18:10;22.00;;;3.88;;
18520;SDS011;9390;51.244;6.982;2023-02-01T07:20:46;23.58;;;3.40;;
18520;SDS011;9390;51.244;6.982;2023-02-01T07:23:21;18.77;;;4.78;;
18520;SDS011;9390;51.244;6.982;2023-02-01T07:25:53;16.83;;;3.63;;
18520;SDS011;9390;51.244;6.982;2023-02-01T07:28:27;28.90;;;5.37;;
18520;SDS011;9390;51.244;6.982;2023-02-01T07:31:03;20.13;;;4.57;;
18520;SDS011;9390;51.244;6.982;2023-02-01T07:33:34;24.63;;;4.18;;
18520;SDS011;9390;51.244;6.982;2023-02-01T07:36:06;27.90;;;4.03;;
18520;SDS011;9390;51.244;6.982;2023-02-01T07:38:39;20.48;;;4.03;;
18520;SDS011;9390;51.244;6.982;2023-02-01T07:41:10;20.58;;;4.63;;
18520;SDS011;9390;51.244;6.982;2023-02-01T07:43:43;24.52;;;5.20;;
18520;SDS011;9390;51.244;6.982;2023-02-01T07:46:15;22.95;;;3.72;;
18520;SDS011;9390;51.244;6.982;2023-02-01T07:48:46;22.88;;;4.70;;
18520;SDS011;9390;51.244;6.982;2023-02-01T07:51:17;19.08;;;4.15;;
18520;SDS011;9390;51.244;6.982;2023-02-01T07:53:49;18.58;;;4.25;;
18520;SDS011;9390;51.244;6.982;2023-02-01T07:56:20;26.88;;;4.45;;
18520;SDS011;9390;51.244;6.982;2023-02-01T07:58:54;22.73;;;4.05;;
18520;SDS011;9390;51.244;6.982;2023-02-01T08:01:26;20.55;;;4.00;;
18520;SDS011;9390;51.244;6.982;2023-02-01T08:03:59;20.58;;;4.28;;
18520;SDS011;9390;51.244;6.982;2023-02-01T08:06:32;27.05;;;4.25;;
18520;SDS011;9390;51.244;6.982;2023-02-01T08:11:37;23.48;;;5.05;;
18520;SDS011;9390;51.244;6.982;2023-02-01T08:14:10;23.10;;;4.35;;
18520;SDS011;9390;51.244;6.982;2023-02-01T08:16:41;27.35;;;4.50;;
18520;SDS011;9390;51.244;6.982;2023-02-01T08:19:13;23.50;;;4.93;;
18520;SDS011;9390;51.244;6.982;2023-02-01T08:21:44;20.35;;;4.72;;
18520;SDS011;9390;51.244;6.982;2023-02-01T08:24:18;18.98;;;4.28;;
18520;SDS011;9390;51.244;6.982;2023-02-01T08:26:51;22.55;;;4.63;;
18520;SDS011;9390;51.244;6.982;2023-02-01T08:29:24;29.67;;;4.38;;
18520;SDS011;9390;51.244;6.982;2023-02-01T08:31:55;31.42;;;5.07;;
18520;SDS011;9390;51.244;6.982;2023-02-01T08:34:26;23.17;;;4.32;;
18520;SDS011;9390;51.244;6.982;2023-02-01T08:36:58;28.27;;;5.15;;
18520;SDS011;9390;51.244;6.982;2023-02-01T08:39:29;24.58;;;4.45;;
18520;SDS011;9390;51.244;6.982;2023-02-01T08:42:01;44.90;;;6.55;;
18520;SDS011;9390;51.244;6.982;2023-02-01T08:44:51;28.02;;;5.10;;
18520;SDS011;9390;51.244;6.982;2023-02-01T08:47:24;20.20;;;4.30;;
18520;SDS011;9390;51.244;6.982;2023-02-01T08:49:56;27.88;;;6.03;;
18520;SDS011;9390;51.244;6.982;2023-02-01T08:52:27;25.08;;;4.60;;
18520;SDS011;9390;51.244;6.982;2023-02-01T08:54:59;23.20;;;3.83;;
18520;SDS011;9390;51.244;6.982;2023-02-01T08:57:30;20.35;;;4.53;;
18520;SDS011;9390;51.244;6.982;2023-02-01T09:00:03;32.40;;;4.25;;
18520;SDS011;9390;51.244;6.982;2023-02-01T09:02:36;30.40;;;4.40;;
18520;SDS011;9390;51.244;6.982;2023-02-01T09:05:07;32.10;;;7.20;;
18520;SDS011;9390;51.244;6.982;2023-02-01T09:07:40;27.20;;;4.35;;
18520;SDS011;9390;51.244;6.982;2023-02-01T09:10:12;22.33;;;4.25;;
18520;SDS011;9390;51.244;6.982;2023-02-01T09:12:43;18.05;;;4.38;;
18520;SDS011;9390;51.244;6.982;2023-02-01T09:15:16;24.65;;;4.50;;
18520;SDS011;9390;51.244;6.982;2023-02-01T09:17:47;26.05;;;5.07;;
18520;SDS011;9390;51.244;6.982;2023-02-01T09:20:19;23.45;;;4.78;;
18520;SDS011;9390;51.244;6.982;2023-02-01T09:22:54;23.75;;;4.20;;
18520;SDS011;9390;51.244;6.982;2023-02-01T09:25:28;26.13;;;5.37;;
18520;SDS011;9390;51.244;6.982;2023-02-01T09:28:00;27.75;;;6.05;;
18520;SDS011;9390;51.244;6.982;2023-02-01T09:30:33;21.77;;;3.90;;
18520;SDS011;9390;51.244;6.982;2023-02-01T09:33:04;31.15;;;5.63;;
18520;SDS011;9390;51.244;6.982;2023-02-01T09:35:35;33.83;;;5.85;;
18520;SDS011;9390;51.244;6.982;2023-02-01T09:38:08;23.80;;;5.63;;
18520;SDS011;9390;51.244;6.982;2023-02-01T09:40:39;24.00;;;5.68;;
18520;SDS011;9390;51.244;6.982;2023-02-01T09:43:17;21.73;;;4.38;;
18520;SDS011;9390;51.244;6.982;2023-02-01T09:45:56;37.72;;;5.55;;
18520;SDS011;9390;51.244;6.982;2023-02-01T09:48:31;30.40;;;4.72;;
18520;SDS011;9390;51.244;6.982;2023-02-01T09:53:36;17.80;;;5.13;;
18520;SDS011;9390;51.244;6.982;2023-02-01T09:56:10;24.27;;;5.40;;
18520;SDS011;9390;51.244;6.982;2023-02-01T09:58:44;19.38;;;5.05;;
18520;SDS011;9390;51.244;6.982;2023-02-01T10:01:21;27.33;;;5.05;;
18520;SDS011;9390;51.244;6.982;2023-02-01T10:03:55;22.50;;;5.20;;
18520;SDS011;9390;51.244;6.982;2023-02-01T10:06:37;26.98;;;5.07;;
18520;SDS011;9390;51.244;6.982;2023-02-01T10:09:25;23.85;;;5.20;;
18520;SDS011;9390;51.244;6.982;2023-02-01T10:12:14;20.63;;;5.18;;
18520;SDS011;9390;51.244;6.982;2023-02-01T10:14:59;26.23;;;5.03;;
18520;SDS011;9390;51.244;6.982;2023-02-01T10:17:41;21.67;;;5.18;;
18520;SDS011;9390;51.244;6.982;2023-02-01T10:20:20;20.08;;;4.55;;
18520;SDS011;9390;51.244;6.982;2023-02-01T10:22:59;28.63;;;5.85;;
18520;SDS011;9390;51.244;6.982;2023-02-01T10:25:36;21.80;;;4.85;;
18520;SDS011;9390;51.244;6.982;2023-02-01T10:28:09;30.92;;;7.22;;
18520;SDS011;9390;51.244;6.982;2023-02-01T10:30:46;23.00;;;5.40;;
18520;SDS011;9390;51.244;6.982;2023-02-01T10:33:22;18.67;;;5.18;;
18520;SDS011;9390;51.244;6.982;2023-02-01T10:35:58;22.67;;;5.00;;
18520;SDS011;9390;51.244;6.982;2023-02-01T10:38:33;25.60;;;5.45;;
18520;SDS011;9390;51.244;6.982;2023-02-01T10:41:08;32.95;;;5.97;;
18520;SDS011;9390;51.244;6.982;2023-02-01T10:43:43;21.35;;;4.90;;
18520;SDS011;9390;51.244;6.982;2023-02-01T10:46:16;18.17;;;5.03;;
18520;SDS011;9390;51.244;6.982;2023-02-01T10:48:49;18.27;;;5.18;;
18520;SDS011;9390;51.244;6.982;2023-02-01T10:51:22;20.75;;;5.38;;
18520;SDS011;9390;51.244;6.982;2023-02-01T10:53:57;22.75;;;4.68;;
18520;SDS011;9390;51.244;6.982;2023-02-01T10:56:30;19.83;;;4.68;;
18520;SDS011;9390;51.244;6.982;2023-02-01T10:59:03;25.95;;;5.38;;
18520;SDS011;9390;51.244;6.982;2023-02-01T11:01:37;24.23;;;6.05;;
18520;SDS011;9390;51.244;6.982;2023-02-01T11:04:12;30.15;;;5.65;;
18520;SDS011;9390;51.244;6.982;2023-02-01T11:06:44;20.63;;;4.93;;
18520;SDS011;9390;51.244;6.982;2023-02-01T11:09:18;18.65;;;4.47;;
18520;SDS011;9390;51.244;6.982;2023-02-01T11:11:56;22.25;;;5.60;;
18520;SDS011;9390;51.244;6.982;2023-02-01T11:14:34;23.63;;;5.30;;
18520;SDS011;9390;51.244;6.982;2023-02-01T11:17:17;19.70;;;4.13;;
18520;SDS011;9390;51.244;6.982;2023-02-01T11:19:58;16.45;;;3.80;;
18520;SDS011;9390;51.244;6.982;2023-02-01T11:22:30;21.58;;;4.15;;
18520;SDS011;9390;51.244;6.982;2023-02-01T11:25:01;21.27;;;3.67;;
18520;SDS011;9390;51.244;6.982;2023-02-01T11:27:39;18.83;;;3.92;;
18520;SDS011;9390;51.244;6.982;2023-02-01T11:30:15;16.95;;;3.92;;
18520;SDS011;9390;51.244;6.982;2023-02-01T11:32:48;14.25;;;3.72;;
18520;SDS011;9390;51.244;6.982;2023-02-01T11:35:22;18.17;;;3.75;;
18520;SDS011;9390;51.244;6.982;2023-02-01T11:37:54;27.80;;;4.75;;
18520;SDS011;9390;51.244;6.982;2023-02-01T11:40:29;16.23;;;3.45;;
18520;SDS011;9390;51.244;6.982;2023-02-01T11:43:07;18.65;;;3.92;;
18520;SDS011;9390;51.244;6.982;2023-02-01T11:45:39;21.15;;;4.93;;
18520;SDS011;9390;51.244;6.982;2023-02-01T11:48:14;26.10;;;4.50;;
18520;SDS011;9390;51.244;6.982;2023-02-01T11:50:49;20.55;;;3.60;;
18520;SDS011;9390;51.244;6.982;2023-02-01T11:53:32;16.40;;;3.85;;
18520;SDS011;9390;51.244;6.982;2023-02-01T11:56:13;25.02;;;4.28;;
18520;SDS011;9390;51.244;6.982;2023-02-01T12:01:43;20.00;;;4.63;;
18520;SDS011;9390;51.244;6.982;2023-02-01T12:04:34;26.38;;;4.13;;
18520;SDS011;9390;51.244;6.982;2023-02-01T12:07:16;21.77;;;4.40;;
18520;SDS011;9390;51.244;6.982;2023-02-01T12:09:53;17.65;;;4.10;;
18520;SDS011;9390;51.244;6.982;2023-02-01T12:12:36;18.23;;;4.68;;
18520;SDS011;9390;51.244;6.982;2023-02-01T12:15:23;18.88;;;4.10;;
18520;SDS011;9390;51.244;6.982;2023-02-01T12:18:14;23.27;;;5.20;;
18520;SDS011;9390;51.244;6.982;2023-02-01T12:21:02;16.27;;;5.07;;
18520;SDS011;9390;51.244;6.982;2023-02-01T12:23:45;23.10;;;4.03;;
18520;SDS011;9390;51.244;6.982;2023-02-01T12:26:36;16.67;;;4.43;;
18520;SDS011;9390;51.244;6.982;2023-02-01T12:29:18;18.92;;;3.95;;
18520;SDS011;9390;51.244;6.982;2023-02-01T12:31:58;19.25;;;4.43;;
18520;SDS011;9390;51.244;6.982;2023-02-01T12:34:50;21.55;;;4.72;;
18520;SDS011;9390;51.244;6.982;2023-02-01T12:37:44;22.30;;;5.78;;
18520;SDS011;9390;51.244;6.982;2023-02-01T12:40:30;19.80;;;5.07;;
18520;SDS011;9390;51.244;6.982;2023-02-01T12:43:11;23.30;;;4.65;;
18520;SDS011;9390;51.244;6.982;2023-02-01T12:45:49;26.90;;;4.55;;
18520;SDS011;9390;51.244;6.982;2023-02-01T12:48:25;21.30;;;4.68;;
18520;SDS011;9390;51.244;6.982;2023-02-01T12:51:00;17.23;;;4.30;;
18520;SDS011;9390;51.244;6.982;2023-02-01T12:53:38;21.00;;;5.07;;
18520;SDS011;9390;51.244;6.982;2023-02-01T12:56:18;24.60;;;5.15;;
18520;SDS011;9390;51.244;6.982;2023-02-01T12:58:53;23.48;;;4.75;;
18520;SDS011;9390;51.244;6.982;2023-02-01T13:01:32;20.63;;;4.35;;
18520;SDS011;9390;51.244;6.982;2023-02-01T13:04:08;17.25;;;4.15;;
18520;SDS011;9390;51.244;6.982;2023-02-01T13:06:43;21.40;;;4.40;;
18520;SDS011;9390;51.244;6.982;2023-02-01T13:09:19;21.13;;;4.95;;
18520;SDS011;9390;51.244;6.982;2023-02-01T13:11:57;18.20;;;4.47;;
18520;SDS011;9390;51.244;6.982;2023-02-01T13:14:33;20.40;;;4.15;;
18520;SDS011;9390;51.244;6.982;2023-02-01T13:17:10;20.10;;;4.15;;
18520;SDS011;9390;51.244;6.982;2023-02-01T13:19:45;17.08;;;4.28;;
18520;SDS011;9390;51.244;6.982;2023-02-01T13:22:21;23.63;;;3.95;;
18520;SDS011;9390;51.244;6.982;2023-02-01T13:24:56;21.85;;;4.50;;
18520;SDS011;9390;51.244;6.982;2023-02-01T13:27:30;21.67;;;3.75;;
18520;SDS011;9390;51.244;6.982;2023-02-01T13:30:06;15.52;;;3.88;;
18520;SDS011;9390;51.244;6.982;2023-02-01T13:36:00;15.98;;;4.57;;
18520;SDS011;9390;51.244;6.982;2023-02-01T13:42:04;18.45;;;3.15;;
18520;SDS011;9390;51.244;6.982;2023-02-01T13:44:44;17.25;;;3.50;;
18520;SDS011;9390;51.244;6.982;2023-02-01T13:47:22;20.80;;;3.72;;
18520;SDS011;9390;51.244;6.982;2023-02-01T13:49:56;20.20;;;3.50;;
18520;SDS011;9390;51.244;6.982;2023-02-01T13:52:32;19.42;;;3.10;;
18520;SDS011;9390;51.244;6.982;2023-02-01T13:55:15;18.73;;;3.95;;
18520;SDS011;9390;51.244;6.982;2023-02-01T13:58:00;15.73;;;3.10;;
18520;SDS011;9390;51.244;6.982;2023-02-01T14:00:36;15.93;;;3.55;;
18520;SDS011;9390;51.244;6.982;2023-02-01T14:03:10;15.82;;;3.22;;
18520;SDS011;9390;51.244;6.982;2023-02-01T14:05:57;17.30;;;3.40;;
18520;SDS011;9390;51.244;6.982;2023-02-01T14:15:23;18.02;;;3.10;;
18520;SDS011;9390;51.244;6.982;2023-02-01T14:17:57;17.02;;;3.70;;
18520;SDS011;9390;51.244;6.982;2023-02-01T14:23:17;16.67;;;2.88;;
18520;SDS011;9390;51.244;6.982;2023-02-01T14:28:45;10.10;;;2.65;;
18520;SDS011;9390;51.244;6.982;2023-02-01T14:31:32;13.18;;;2.75;;
18520;SDS011;9390;51.244;6.982;2023-02-01T14:34:13;19.98;;;2.90;;
18520;SDS011;9390;51.244;6.982;2023-02-01T14:36:49;13.10;;;3.67;;
18520;SDS011;9390;51.244;6.982;2023-02-01T14:39:31;19.27;;;3.13;;
18520;SDS011;9390;51.244;6.982;2023-02-01T14:42:05;15.95;;;3.20;;
18520;SDS011;9390;51.244;6.982;2023-02-01T14:44:49;16.88;;;2.83;;
18520;SDS011;9390;51.244;6.982;2023-02-01T14:47:31;26.15;;;5.20;;
18520;SDS011;9390;51.244;6.982;2023-02-01T14:50:25;20.08;;;2.53;;
18520;SDS011;9390;51.244;6.982;2023-02-01T14:53:03;15.85;;;2.78;;
18520;SDS011;9390;51.244;6.982;2023-02-01T14:55:40;19.50;;;2.42;;
18520;SDS011;9390;51.244;6.982;2023-02-01T14:58:14;15.55;;;2.45;;
18520;SDS011;9390;51.244;6.982;2023-02-01T15:00:50;11.77;;;3.22;;
18520;SDS011;9390;51.244;6.982;2023-02-01T15:03:34;17.10;;;2.80;;
18520;SDS011;9390;51.244;6.982;2023-02-01T15:06:20;21.05;;;3.00;;
18520;SDS011;9390;51.244;6.982;2023-02-01T15:08:56;14.55;;;2.60;;
18520;SDS011;9390;51.244;6.982;2023-02-01T15:11:29;16.35;;;2.65;;
18520;SDS011;9390;51.244;6.982;2023-02-01T15:14:00;16.60;;;2.47;;
18520;SDS011;9390;51.244;6.982;2023-02-01T15:16:32;15.98;;;2.88;;
18520;SDS011;9390;51.244;6.982;2023-02-01T15:19:06;12.45;;;2.92;;
18520;SDS011;9390;51.244;6.982;2023-02-01T15:21:44;16.13;;;3.20;;
18520;SDS011;9390;51.244;6.982;2023-02-01T15:24:20;19.80;;;3.15;;
18520;SDS011;9390;51.244;6.982;2023-02-01T15:26:53;15.70;;;2.80;;
18520;SDS011;9390;51.244;6.982;2023-02-01T15:29:25;16.20;;;2.83;;
18520;SDS011;9390;51.244;6.982;2023-02-01T15:32:02;18.60;;;3.50;;
18520;SDS011;9390;51.244;6.982;2023-02-01T15:34:45;19.95;;;3.08;;
18520;SDS011;9390;51.244;6.982;2023-02-01T15:37:20;18.17;;;2.85;;
18520;SDS011;9390;51.244;6.982;2023-02-01T15:40:14;21.75;;;4.55;;
18520;SDS011;9390;51.244;6.982;2023-02-01T15:42:52;17.58;;;2.88;;
18520;SDS011;9390;51.244;6.982;2023-02-01T15:45:25;16.02;;;2.80;;
18520;SDS011;9390;51.244;6.982;2023-02-01T15:47:58;19.83;;;2.97;;
18520;SDS011;9390;51.244;6.982;2023-02-01T15:50:30;20.95;;;3.28;;
18520;SDS011;9390;51.244;6.982;2023-02-01T15:58:18;17.52;;;2.95;;
18520;SDS011;9390;51.244;6.982;2023-02-01T16:00:50;15.18;;;3.38;;
18520;SDS011;9390;51.244;6.982;2023-02-01T16:03:25;26.33;;;3.80;;
18520;SDS011;9390;51.244;6.982;2023-02-01T16:05:58;16.10;;;2.75;;
18520;SDS011;9390;51.244;6.982;2023-02-01T16:08:32;25.13;;;3.42;;
18520;SDS011;9390;51.244;6.982;2023-02-01T16:11:16;16.02;;;3.05;;
18520;SDS011;9390;51.244;6.982;2023-02-01T16:13:53;21.88;;;3.55;;
18520;SDS011;9390;51.244;6.982;2023-02-01T16:16:25;17.65;;;3.03;;
18520;SDS011;9390;51.244;6.982;2023-02-01T16:18:57;22.93;;;3.33;;